Time;durP1;ratioP1;P1;durP2;ratioP2;P2;SDS_P1;SDS_P2;PMS_P1;PMS_P2;Temp;Humidity;BMP_temperature;BMP_pressure;BME280_temperature;BME280_humidity;BME280_pressure;Samples;Min_cycle;Max_cycle;Signal;HPM_P1;HPM_P2
2023/09/17 00:01:24;;;;;;;9.75;8.10;;;21.10;99.90;;;;;;4875419;29;20606;-63
2023/09/17 00:03:51;;;;;;;12.13;8.02;;;21.10;99.90;;;;;;4889741;29;20697;-63
2023/09/17 00:06:20;;;;;;;12.00;8.38;;;21.00;99.90;;;;;;4873440;29;20202;-63
2023/09/17 00:08:47;;;;;;;10.55;8.68;;;21.00;99.90;;;;;;4872785;29;20644;-63
2023/09/17 00:11:14;;;;;;;9.18;7.82;;;20.90;99.90;;;;;;4875030;29;20239;-63
2023/09/17 00:13:41;;;;;;;14.70;8.68;;;20.90;99.90;;;;;;4875968;29;20289;-64
2023/09/17 00:16:10;;;;;;;11.40;8.68;;;20.90;99.90;;;;;;4874309;29;20582;-62
2023/09/17 00:18:37;;;;;;;11.00;8.48;;;20.80;99.90;;;;;;4875220;29;20197;-63
2023/09/17 00:21:06;;;;;;;11.60;8.90;;;20.70;99.90;;;;;;4875277;29;20667;-63
2023/09/17 00:23:33;;;;;;;12.52;9.50;;;20.60;99.90;;;;;;4881339;29;20886;-62
2023/09/17 00:26:00;;;;;;;15.32;9.80;;;20.50;99.90;;;;;;4871740;29;20209;-63
2023/09/17 00:28:27;;;;;;;13.32;9.80;;;20.50;99.90;;;;;;4872849;29;20204;-63
2023/09/17 00:30:54;;;;;;;12.27;8.20;;;20.50;99.90;;;;;;4895030;29;20198;-63
2023/09/17 00:33:22;;;;;;;10.32;7.82;;;20.50;99.90;;;;;;4856074;29;20881;-69
2023/09/17 00:35:49;;;;;;;11.95;7.97;;;20.50;99.90;;;;;;4878989;29;20197;-68
2023/09/17 00:38:16;;;;;;;14.02;9.63;;;20.50;99.90;;;;;;4877624;29;20722;-68
2023/09/17 00:40:43;;;;;;;13.07;9.32;;;20.50;99.90;;;;;;4881629;29;20206;-68
2023/09/17 00:43:11;;;;;;;12.00;9.75;;;20.40;99.90;;;;;;4872223;29;20221;-69
2023/09/17 00:45:41;;;;;;;9.75;7.75;;;20.40;99.90;;;;;;4878222;29;20202;-72
2023/09/17 00:48:12;;;;;;;11.95;9.10;;;20.30;99.90;;;;;;4876668;29;20233;-70
2023/09/17 00:50:39;;;;;;;10.85;8.63;;;20.30;99.90;;;;;;4876363;29;20582;-69
2023/09/17 00:53:07;;;;;;;12.68;9.50;;;20.30;99.90;;;;;;4871077;29;20209;-68
2023/09/17 00:55:35;;;;;;;12.48;9.13;;;20.30;99.90;;;;;;4878148;29;20550;-69
2023/09/17 00:58:04;;;;;;;10.88;8.63;;;20.30;99.90;;;;;;4889250;29;20735;-69
2023/09/17 01:00:35;;;;;;;12.73;9.63;;;20.20;99.90;;;;;;4876993;29;20313;-66
2023/09/17 01:03:02;;;;;;;10.10;8.77;;;20.20;99.90;;;;;;4879765;29;20218;-64
2023/09/17 01:05:36;;;;;;;12.52;9.55;;;20.20;99.90;;;;;;4876966;29;20210;-66
2023/09/17 01:08:07;;;;;;;11.98;9.25;;;20.20;99.90;;;;;;4878235;29;20206;-70
2023/09/17 01:10:35;;;;;;;12.90;9.02;;;20.10;99.90;;;;;;4872435;29;20197;-68
2023/09/17 01:13:04;;;;;;;10.52;8.40;;;20.10;99.90;;;;;;4875563;29;20221;-67
2023/09/17 01:15:33;;;;;;;13.13;9.90;;;20.00;99.90;;;;;;4871593;29;20218;-67
2023/09/17 01:18:05;;;;;;;12.75;9.63;;;19.90;99.90;;;;;;4857392;29;20281;-67
2023/09/17 01:20:41;;;;;;;11.38;9.32;;;19.90;99.90;;;;;;4853369;29;20202;-68
2023/09/17 01:23:15;;;;;;;11.23;8.93;;;19.80;99.90;;;;;;4851271;29;20566;-68
2023/09/17 01:25:56;;;;;;;13.40;9.52;;;19.70;99.90;;;;;;4873779;29;20673;-68
2023/09/17 01:28:24;;;;;;;12.88;9.50;;;19.70;99.90;;;;;;4855209;29;20228;-66
2023/09/17 01:30:51;;;;;;;14.57;10.43;;;19.60;99.90;;;;;;4876412;29;20620;-68
2023/09/17 01:33:18;;;;;;;13.77;9.65;;;19.50;99.90;;;;;;4863999;29;20233;-68
2023/09/17 01:36:01;;;;;;;15.27;10.73;;;19.40;99.90;;;;;;4855677;29;20205;-67
2023/09/17 01:38:33;;;;;;;13.40;9.98;;;19.20;99.90;;;;;;4852754;29;20573;-71
2023/09/17 01:41:03;;;;;;;12.88;9.07;;;19.20;99.90;;;;;;4865353;29;20201;-67
2023/09/17 01:43:30;;;;;;;13.18;9.23;;;19.30;99.90;;;;;;4873931;29;20238;-67
2023/09/17 01:45:59;;;;;;;14.77;9.52;;;19.40;99.90;;;;;;4871896;29;20197;-69
2023/09/17 01:48:27;;;;;;;13.95;9.75;;;19.40;99.90;;;;;;4835322;29;20694;-68
2023/09/17 01:50:55;;;;;;;13.40;9.68;;;19.40;99.90;;;;;;4868261;29;20229;-68
2023/09/17 01:53:22;;;;;;;17.52;10.50;;;19.30;99.90;;;;;;4835447;29;20214;-68
2023/09/17 01:55:52;;;;;;;15.52;10.00;;;19.40;99.90;;;;;;4851531;29;20202;-68
2023/09/17 01:58:21;;;;;;;13.55;10.20;;;19.30;99.90;;;;;;4853614;29;20221;-67
2023/09/17 02:04:50;;;;;;;15.98;10.65;;;19.20;99.90;;;;;;4869924;29;20346;-67
2023/09/17 02:07:17;;;;;;;14.50;10.32;;;19.10;99.90;;;;;;4853154;29;20206;-65
2023/09/17 02:09:45;;;;;;;13.20;10.18;;;18.90;99.90;;;;;;4853828;29;20210;-66
2023/09/17 02:12:12;;;;;;;13.55;10.20;;;18.80;99.90;;;;;;4854892;29;20270;-71
2023/09/17 02:14:39;;;;;;;13.63;10.85;;;18.80;99.90;;;;;;4870069;29;20632;-64
2023/09/17 02:17:09;;;;;;;15.63;11.73;;;18.80;99.90;;;;;;4851891;29;20210;-63
2023/09/17 02:19:42;;;;;;;19.70;10.82;;;18.80;99.90;;;;;;4852797;29;20209;-63
2023/09/17 02:22:09;;;;;;;13.57;9.75;;;18.90;99.90;;;;;;4849385;29;20277;-63
2023/09/17 02:24:36;;;;;;;19.38;11.10;;;18.90;99.90;;;;;;4874898;29;20296;-63
2023/09/17 02:27:03;;;;;;;19.42;11.73;;;18.90;99.90;;;;;;4850591;29;20344;-62
2023/09/17 02:29:30;;;;;;;16.48;12.10;;;18.90;99.90;;;;;;4834231;29;20300;-63
2023/09/17 02:31:57;;;;;;;17.35;12.23;;;18.90;99.90;;;;;;4851454;29;20312;-63
2023/09/17 02:34:24;;;;;;;16.35;12.55;;;18.90;99.90;;;;;;4835054;29;20214;-67
2023/09/17 02:36:51;;;;;;;18.40;12.10;;;18.90;99.90;;;;;;4851882;29;20218;-62
2023/09/17 02:39:18;;;;;;;16.38;11.95;;;18.90;99.90;;;;;;4873523;29;20678;-63
2023/09/17 02:41:45;;;;;;;17.80;12.18;;;19.00;99.90;;;;;;4849601;29;20218;-63
2023/09/17 02:44:13;;;;;;;16.58;12.15;;;18.90;99.90;;;;;;4852861;29;20765;-62
2023/09/17 02:46:40;;;;;;;15.88;11.65;;;18.90;99.90;;;;;;4855752;29;20206;-61
2023/09/17 02:49:07;;;;;;;16.02;11.38;;;19.00;99.90;;;;;;4866357;29;20615;-62
2023/09/17 02:51:34;;;;;;;16.42;12.00;;;19.10;99.90;;;;;;4865205;29;20698;-63
2023/09/17 02:54:02;;;;;;;16.92;11.52;;;19.10;99.90;;;;;;4849458;29;20324;-63
2023/09/17 02:56:29;;;;;;;15.13;11.70;;;19.20;99.90;;;;;;4851169;29;20300;-62
2023/09/17 02:58:56;;;;;;;16.70;11.35;;;19.20;99.90;;;;;;4866984;29;20197;-63
2023/09/17 03:01:24;;;;;;;15.75;10.85;;;19.20;99.90;;;;;;4869240;29;20419;-63
2023/09/17 03:03:53;;;;;;;17.23;11.82;;;19.10;99.90;;;;;;4866539;29;20218;-63
2023/09/17 03:06:21;;;;;;;16.00;11.98;;;19.10;99.90;;;;;;4869202;29;20218;-72
2023/09/17 03:08:49;;;;;;;15.18;12.57;;;19.00;99.90;;;;;;4863632;29;20847;-63
2023/09/17 03:11:17;;;;;;;19.27;12.85;;;19.20;99.90;;;;;;4869479;29;20208;-62
2023/09/17 03:13:46;;;;;;;16.50;11.38;;;19.20;99.90;;;;;;4848427;29;20794;-63
2023/09/17 03:16:15;;;;;;;15.75;11.68;;;19.30;99.90;;;;;;4865909;29;20828;-62
2023/09/17 03:18:43;;;;;;;17.48;12.77;;;19.30;99.90;;;;;;4884119;29;20209;-63
2023/09/17 03:21:11;;;;;;;14.38;11.63;;;19.50;99.90;;;;;;4870795;29;20213;-64
2023/09/17 03:23:39;;;;;;;16.88;11.90;;;19.60;99.90;;;;;;4877444;29;20229;-63
2023/09/17 03:26:09;;;;;;;14.48;12.02;;;19.70;99.90;;;;;;4865739;29;20756;-63
2023/09/17 03:28:36;;;;;;;18.00;10.80;;;19.80;99.90;;;;;;4866095;29;20317;-63
2023/09/17 03:31:04;;;;;;;12.98;10.75;;;20.00;99.90;;;;;;4867833;29;20209;-63
2023/09/17 03:33:36;;;;;;;13.90;10.20;;;20.10;99.90;;;;;;4849353;29;20235;-62
2023/09/17 03:36:03;;;;;;;12.27;9.80;;;20.10;99.90;;;;;;4864928;29;20210;-62
2023/09/17 03:38:30;;;;;;;11.95;9.65;;;20.10;99.90;;;;;;4867225;29;20749;-64
2023/09/17 03:40:59;;;;;;;11.45;8.57;;;20.10;99.90;;;;;;4870351;29;20666;-63
2023/09/17 03:43:27;;;;;;;11.23;9.10;;;20.20;99.90;;;;;;4877706;29;20225;-65
2023/09/17 03:45:55;;;;;;;13.35;9.45;;;20.30;99.90;;;;;;4849093;29;20202;-63
2023/09/17 03:48:22;;;;;;;12.57;9.13;;;20.20;99.90;;;;;;4867746;29;20670;-63
2023/09/17 03:50:49;;;;;;;12.85;8.82;;;20.20;99.90;;;;;;4845935;29;20548;-63
2023/09/17 03:53:16;;;;;;;10.60;8.75;;;20.30;99.90;;;;;;4863657;29;20230;-66
2023/09/17 03:55:44;;;;;;;11.13;9.02;;;20.30;99.90;;;;;;4847146;29;20214;-63
2023/09/17 03:58:12;;;;;;;13.52;8.73;;;20.30;99.90;;;;;;4869002;29;20343;-63
2023/09/17 04:00:44;;;;;;;12.65;8.85;;;20.10;99.90;;;;;;4861450;29;20209;-63
2023/09/17 04:03:14;;;;;;;9.38;8.05;;;20.20;99.90;;;;;;4884260;29;20220;-64
2023/09/17 04:05:46;;;;;;;11.60;9.18;;;20.10;99.90;;;;;;4883324;29;20226;-62
2023/09/17 04:08:14;;;;;;;12.05;9.48;;;20.10;99.90;;;;;;4873113;29;20194;-63
2023/09/17 04:10:43;;;;;;;13.20;9.50;;;20.00;99.90;;;;;;4872057;29;21723;-64
2023/09/17 04:13:12;;;;;;;9.77;7.07;;;20.00;99.90;;;;;;4869037;29;20200;-64
2023/09/17 04:15:39;;;;;;;10.02;8.23;;;19.80;99.90;;;;;;4851159;29;20201;-63
2023/09/17 04:18:06;;;;;;;10.45;8.20;;;19.90;99.90;;;;;;4851406;29;20221;-62
2023/09/17 04:20:35;;;;;;;12.63;9.20;;;19.70;99.90;;;;;;4872840;29;20243;-64
2023/09/17 04:23:03;;;;;;;12.18;9.07;;;19.80;99.90;;;;;;4871743;29;20212;-63
2023/09/17 04:25:32;;;;;;;14.13;10.52;;;19.70;99.90;;;;;;4850584;29;20236;-64
2023/09/17 04:27:59;;;;;;;12.13;7.80;;;19.50;99.90;;;;;;4850005;29;20316;-64
2023/09/17 04:30:27;;;;;;;12.35;9.25;;;19.60;99.90;;;;;;4852148;29;20261;-63
2023/09/17 04:32:54;;;;;;;11.98;9.02;;;19.70;99.90;;;;;;4836288;29;20225;-63
2023/09/17 04:35:22;;;;;;;13.02;8.48;;;19.80;99.90;;;;;;4857071;29;20205;-64
2023/09/17 04:37:50;;;;;;;12.07;9.80;;;20.00;99.90;;;;;;4857321;29;20213;-63
2023/09/17 04:40:28;;;;;;;12.25;8.93;;;19.90;99.90;;;;;;4849055;29;20296;-65
2023/09/17 04:42:57;;;;;;;14.13;10.20;;;19.80;99.90;;;;;;4865675;29;20325;-63
2023/09/17 04:45:39;;;;;;;12.60;7.88;;;19.70;99.90;;;;;;4874471;29;20216;-63
2023/09/17 04:48:27;;;;;;;13.77;10.00;;;19.70;99.90;;;;;;4872500;29;20220;-64
2023/09/17 04:50:57;;;;;;;10.90;9.45;;;19.60;99.90;;;;;;4854012;29;20225;-63
2023/09/17 04:53:24;;;;;;;14.13;9.57;;;19.50;99.90;;;;;;4852461;29;20206;-64
2023/09/17 04:55:53;;;;;;;12.70;8.98;;;19.60;99.90;;;;;;4854137;29;20678;-65
2023/09/17 04:58:24;;;;;;;12.40;9.63;;;19.80;99.90;;;;;;4842017;29;20220;-69
2023/09/17 05:00:54;;;;;;;11.50;8.43;;;19.90;99.90;;;;;;4849504;29;20209;-63
2023/09/17 05:03:21;;;;;;;10.55;8.45;;;20.00;99.90;;;;;;4856884;29;20371;-62
2023/09/17 05:05:49;;;;;;;14.70;9.50;;;19.90;99.90;;;;;;4834718;29;20245;-62
2023/09/17 05:08:18;;;;;;;11.50;9.57;;;19.90;99.90;;;;;;4852539;29;20320;-63
2023/09/17 05:10:46;;;;;;;13.13;9.25;;;19.70;99.90;;;;;;4851931;29;20201;-62
2023/09/17 05:13:14;;;;;;;13.50;9.82;;;19.60;99.90;;;;;;4855564;29;20200;-62
2023/09/17 05:15:41;;;;;;;15.65;10.45;;;19.60;99.90;;;;;;4831518;29;20202;-65
2023/09/17 05:18:09;;;;;;;13.60;9.70;;;19.50;99.90;;;;;;4855213;29;20293;-62
2023/09/17 05:20:43;;;;;;;13.82;10.68;;;19.40;99.90;;;;;;4852912;29;20519;-61
2023/09/17 05:23:13;;;;;;;12.27;9.13;;;19.50;99.90;;;;;;4853488;29;20233;-64
2023/09/17 05:25:40;;;;;;;13.27;9.98;;;19.70;99.90;;;;;;4872212;29;20422;-64
2023/09/17 05:28:09;;;;;;;17.75;10.43;;;19.60;99.90;;;;;;4856590;29;20336;-63
2023/09/17 05:30:37;;;;;;;16.38;10.88;;;19.60;99.90;;;;;;4850892;29;20249;-62
2023/09/17 05:33:04;;;;;;;12.90;10.05;;;19.60;99.90;;;;;;4851110;29;20221;-62
2023/09/17 05:35:36;;;;;;;14.80;10.68;;;19.60;99.90;;;;;;4851864;29;20209;-64
2023/09/17 05:38:03;;;;;;;21.85;10.77;;;19.50;99.90;;;;;;4852759;29;20281;-62
2023/09/17 05:40:31;;;;;;;14.85;10.48;;;19.60;99.90;;;;;;4834024;29;20810;-64
2023/09/17 05:42:58;;;;;;;12.98;10.55;;;19.40;99.90;;;;;;4854749;29;20535;-63
2023/09/17 05:45:26;;;;;;;14.02;10.77;;;19.30;99.90;;;;;;4855607;29;20231;-62
2023/09/17 05:47:54;;;;;;;12.20;10.52;;;19.30;99.90;;;;;;4849616;29;20197;-64
2023/09/17 05:50:21;;;;;;;19.88;11.48;;;18.90;99.90;;;;;;4864852;29;20205;-62
2023/09/17 05:52:48;;;;;;;15.82;10.93;;;19.10;99.90;;;;;;4849724;29;21212;-62
2023/09/17 05:55:15;;;;;;;14.38;11.25;;;19.10;99.90;;;;;;4852823;29;20209;-67
2023/09/17 05:57:42;;;;;;;13.45;11.13;;;19.10;99.90;;;;;;4849735;29;20514;-62
2023/09/17 06:00:10;;;;;;;16.15;12.18;;;19.10;99.90;;;;;;4848846;29;20213;-64
2023/09/17 06:02:40;;;;;;;17.25;12.88;;;18.90;99.90;;;;;;4869682;29;20285;-62
2023/09/17 06:05:10;;;;;;;16.83;12.38;;;19.00;99.90;;;;;;4852087;29;20212;-63
2023/09/17 06:07:37;;;;;;;17.92;12.43;;;19.00;99.90;;;;;;4856009;29;20198;-62
2023/09/17 06:10:05;;;;;;;17.23;12.98;;;19.00;99.90;;;;;;4853654;29;20261;-62
2023/09/17 06:12:32;;;;;;;16.45;12.20;;;19.00;99.90;;;;;;4851920;29;20637;-63
2023/09/17 06:15:00;;;;;;;18.48;13.18;;;19.10;99.90;;;;;;4866569;29;20233;-63
2023/09/17 06:17:27;;;;;;;19.65;12.57;;;19.20;99.90;;;;;;4837247;29;20796;-62
2023/09/17 06:19:54;;;;;;;16.40;13.02;;;19.30;99.90;;;;;;4848351;29;20210;-64
2023/09/17 06:22:21;;;;;;;17.92;11.70;;;19.40;99.90;;;;;;4869692;29;20217;-63
2023/09/17 06:24:49;;;;;;;14.73;11.68;;;19.40;99.90;;;;;;4865537;29;22394;-67
2023/09/17 06:27:15;;;;;;;14.73;11.80;;;19.40;99.90;;;;;;4855411;29;20202;-68
2023/09/17 06:29:42;;;;;;;16.17;12.65;;;19.40;99.90;;;;;;4864636;29;20193;-67
2023/09/17 06:32:10;;;;;;;15.38;11.98;;;19.40;99.90;;;;;;4866969;29;20761;-68
2023/09/17 06:34:38;;;;;;;15.35;11.82;;;19.40;99.90;;;;;;4865533;29;20202;-70
2023/09/17 06:37:06;;;;;;;15.10;12.02;;;19.60;99.90;;;;;;4860266;29;20366;-69
2023/09/17 06:39:34;;;;;;;15.63;12.35;;;19.80;99.90;;;;;;4854042;29;20205;-68
2023/09/17 06:42:02;;;;;;;14.63;11.40;;;20.10;99.90;;;;;;4866610;29;20559;-74
2023/09/17 06:44:29;;;;;;;18.45;11.25;;;20.10;99.90;;;;;;4868124;29;20248;-68
2023/09/17 06:46:56;;;;;;;15.35;11.52;;;20.30;99.90;;;;;;4866582;29;20205;-68
2023/09/17 06:49:23;;;;;;;14.82;11.75;;;20.40;99.90;;;;;;4870183;29;20218;-68
2023/09/17 06:51:52;;;;;;;18.42;10.95;;;20.70;99.90;;;;;;4868594;29;20721;-66
2023/09/17 06:54:19;;;;;;;14.18;10.65;;;21.00;99.90;;;;;;4849259;29;20225;-64
2023/09/17 06:56:46;;;;;;;13.70;10.10;;;21.70;99.90;;;;;;4868183;29;20198;-63
2023/09/17 06:59:13;;;;;;;13.48;9.45;;;22.60;99.90;;;;;;4852701;29;20276;-62
2023/09/17 07:01:41;;;;;;;11.27;8.77;;;23.30;99.90;;;;;;4868956;29;20299;-63
2023/09/17 07:04:08;;;;;;;11.00;9.13;;;23.40;99.90;;;;;;4842889;29;20197;-62
2023/09/17 07:06:39;;;;;;;12.32;9.50;;;22.80;99.90;;;;;;4868107;29;20285;-62
2023/09/17 07:09:07;;;;;;;11.30;8.93;;;23.30;99.90;;;;;;4870298;29;20221;-62
2023/09/17 07:11:34;;;;;;;11.35;8.70;;;23.40;99.90;;;;;;4867200;29;21019;-62
2023/09/17 07:14:09;;;;;;;11.88;8.27;;;23.60;99.90;;;;;;4866793;29;20233;-62
2023/09/17 07:16:39;;;;;;;12.65;8.27;;;24.40;99.90;;;;;;4850424;29;20288;-62
2023/09/17 07:19:06;;;;;;;10.77;7.75;;;24.70;99.90;;;;;;4866969;29;20205;-65
2023/09/17 07:21:33;;;;;;;9.88;8.07;;;24.90;99.90;;;;;;4868998;29;20299;-62
2023/09/17 07:24:00;;;;;;;9.10;7.35;;;25.20;99.90;;;;;;4853919;29;20910;-67
2023/09/17 07:26:28;;;;;;;7.93;7.10;;;25.50;99.90;;;;;;4877828;29;20232;-66
2023/09/17 07:28:55;;;;;;;10.48;7.63;;;25.00;99.90;;;;;;4867430;29;20197;-64
2023/09/17 07:31:22;;;;;;;11.18;7.43;;;24.20;99.90;;;;;;4867483;29;20249;-64
2023/09/17 07:33:49;;;;;;;10.98;8.05;;;24.10;99.90;;;;;;4869716;29;20193;-70
2023/09/17 07:36:16;;;;;;;9.40;7.10;;;24.20;99.90;;;;;;4868449;29;20287;-67
2023/09/17 07:38:43;;;;;;;9.45;6.90;;;24.90;99.90;;;;;;4858552;29;20193;-66
2023/09/17 07:41:10;;;;;;;9.07;6.95;;;25.50;99.90;;;;;;4869379;29;20198;-66
2023/09/17 07:43:37;;;;;;;8.32;6.57;;;25.70;99.90;;;;;;4876722;29;20201;-67
2023/09/17 07:46:05;;;;;;;8.95;6.82;;;25.60;99.90;;;;;;4872928;29;20217;-66
2023/09/17 07:48:32;;;;;;;7.78;6.40;;;24.80;99.90;;;;;;4844178;29;20206;-67
2023/09/17 07:51:00;;;;;;;7.10;5.53;;;25.40;99.90;;;;;;4878587;29;20280;-69
2023/09/17 07:53:27;;;;;;;6.90;6.07;;;27.70;99.90;;;;;;4862350;29;20236;-70
2023/09/17 07:55:55;;;;;;;8.48;5.32;;;28.80;99.90;;;;;;4870886;29;20746;-70
2023/09/17 07:58:23;;;;;;;7.43;4.90;;;28.10;99.90;;;;;;4877167;29;20495;-70
2023/09/17 08:00:50;;;;;;;6.43;4.80;;;28.10;99.90;;;;;;4878226;29;20212;-69
2023/09/17 08:03:18;;;;;;;6.07;4.90;;;29.50;99.90;;;;;;4872349;29;20820;-70
2023/09/17 08:05:47;;;;;;;6.15;5.07;;;30.90;99.90;;;;;;4872961;29;20619;-67
2023/09/17 08:08:14;;;;;;;8.02;5.07;;;30.40;99.90;;;;;;4869725;29;20250;-68
2023/09/17 08:10:41;;;;;;;5.82;5.10;;;29.50;99.90;;;;;;4885347;29;20193;-68
2023/09/17 08:13:09;;;;;;;5.07;4.20;;;29.00;99.90;;;;;;4870091;29;20661;-69
2023/09/17 08:15:36;;;;;;;5.65;4.65;;;30.50;99.90;;;;;;4878749;29;20686;-69
2023/09/17 08:18:03;;;;;;;5.72;4.43;;;30.60;99.90;;;;;;4872633;29;20198;-69
2023/09/17 08:20:30;;;;;;;5.00;4.47;;;29.00;99.90;;;;;;4872768;29;20944;-66
2023/09/17 08:22:58;;;;;;;6.07;4.38;;;32.50;99.90;;;;;;4879324;29;20201;-66
2023/09/17 08:25:26;;;;;;;4.78;4.28;;;33.90;99.90;;;;;;4856507;29;20249;-70
2023/09/17 08:27:53;;;;;;;5.28;4.78;;;34.90;99.90;;;;;;4885034;29;20241;-68
2023/09/17 08:30:20;;;;;;;5.88;4.93;;;35.50;99.90;;;;;;4875986;29;20216;-67
2023/09/17 08:32:47;;;;;;;10.73;4.60;;;34.90;99.90;;;;;;4874192;29;20229;-67
2023/09/17 08:35:14;;;;;;;6.75;4.60;;;36.10;99.90;;;;;;4866026;29;20247;-68
2023/09/17 08:37:43;;;;;;;5.35;4.13;;;37.60;99.90;;;;;;4883461;29;20741;-68
2023/09/17 08:40:17;;;;;;;3.92;3.55;;;37.20;99.90;;;;;;4877252;29;20221;-66
2023/09/17 08:42:45;;;;;;;4.43;4.03;;;37.80;99.90;;;;;;4858998;29;20227;-70
2023/09/17 08:45:13;;;;;;;4.40;4.00;;;36.10;99.90;;;;;;4860281;29;20234;-67
2023/09/17 08:47:40;;;;;;;5.15;4.22;;;34.30;99.90;;;;;;4878203;29;20218;-67
2023/09/17 08:50:09;;;;;;;8.02;4.47;;;33.80;99.90;;;;;;4862876;29;20229;-67
2023/09/17 08:52:48;;;;;;;6.10;4.43;;;33.00;99.90;;;;;;4865048;29;20603;-67
2023/09/17 08:55:17;;;;;;;6.90;4.30;;;34.70;99.90;;;;;;4858480;29;20552;-68
2023/09/17 08:57:52;;;;;;;5.88;4.28;;;35.40;99.90;;;;;;4871296;29;20202;-66
2023/09/17 09:00:21;;;;;;;5.45;4.10;;;35.70;99.90;;;;;;4873242;29;20193;-65
2023/09/17 09:03:00;;;;;;;4.43;4.03;;;33.60;99.90;;;;;;4860333;29;20360;-65
2023/09/17 09:05:27;;;;;;;4.28;3.70;;;33.60;99.90;;;;;;4874505;29;20821;-65
2023/09/17 09:07:56;;;;;;;3.90;3.60;;;37.00;99.90;;;;;;4863013;29;20198;-66
2023/09/17 09:10:24;;;;;;;6.13;3.92;;;37.60;99.90;;;;;;4878947;29;20642;-65
2023/09/17 09:12:51;;;;;;;4.13;3.72;;;37.50;99.90;;;;;;4870364;29;20284;-65
2023/09/17 09:15:18;;;;;;;4.28;3.30;;;39.70;99.90;;;;;;4886528;29;20308;-65
2023/09/17 09:17:46;;;;;;;5.13;3.55;;;40.50;99.90;;;;;;4873877;29;20194;-67
2023/09/17 09:20:19;;;;;;;3.35;3.03;;;38.50;99.90;;;;;;4868316;29;20222;-65
2023/09/17 09:22:46;;;;;;;4.30;3.13;;;34.50;99.90;;;;;;4873796;29;20631;-65
2023/09/17 09:25:15;;;;;;;3.30;3.00;;;32.00;99.90;;;;;;4862669;29;20223;-67
2023/09/17 09:27:43;;;;;;;3.92;3.33;;;33.50;99.90;;;;;;4874003;29;20501;-67
2023/09/17 09:30:12;;;;;;;4.35;3.10;;;34.00;99.90;;;;;;4876052;29;20678;-67
2023/09/17 09:32:41;;;;;;;3.20;2.90;;;33.00;99.90;;;;;;4892735;29;20217;-69
2023/09/17 09:35:08;;;;;;;2.92;2.72;;;34.40;99.90;;;;;;4886541;29;20361;-67
2023/09/17 09:37:36;;;;;;;3.47;2.95;;;34.70;99.90;;;;;;4889224;29;20284;-68
2023/09/17 09:40:04;;;;;;;3.28;2.97;;;34.60;99.90;;;;;;4879587;29;20204;-68
2023/09/17 09:42:32;;;;;;;3.35;3.05;;;35.90;99.90;;;;;;4876526;29;20727;-66
2023/09/17 09:44:59;;;;;;;3.07;2.80;;;38.30;99.90;;;;;;4875866;29;20228;-65
2023/09/17 09:47:26;;;;;;;4.50;3.03;;;35.10;99.90;;;;;;4876247;29;20201;-65
2023/09/17 09:49:53;;;;;;;3.30;3.00;;;33.90;99.90;;;;;;4892815;29;20273;-67
2023/09/17 09:52:21;;;;;;;3.63;2.65;;;36.30;99.90;;;;;;4887596;29;20277;-65
2023/09/17 09:54:48;;;;;;;3.60;2.92;;;37.20;99.90;;;;;;4891826;29;20287;-66
2023/09/17 09:57:18;;;;;;;4.18;3.33;;;37.30;99.90;;;;;;4882397;29;20736;-65
2023/09/17 09:59:47;;;;;;;3.20;3.00;;;39.00;99.90;;;;;;4891683;29;20197;-66
2023/09/17 10:02:15;;;;;;;5.65;3.03;;;38.30;99.90;;;;;;4892048;29;20216;-63
2023/09/17 10:04:46;;;;;;;4.72;2.88;;;37.30;99.90;;;;;;4890533;29;20685;-64
2023/09/17 10:07:15;;;;;;;3.45;3.15;;;37.60;99.90;;;;;;4868849;29;20266;-63
2023/09/17 10:09:42;;;;;;;3.72;3.42;;;39.50;99.90;;;;;;4870976;29;20210;-63
2023/09/17 10:12:10;;;;;;;4.88;3.15;;;38.50;99.90;;;;;;4878264;29;20264;-63
2023/09/17 10:14:38;;;;;;;3.25;2.90;;;35.00;99.90;;;;;;4878475;29;20282;-66
2023/09/17 10:17:10;;;;;;;3.10;2.80;;;34.50;99.90;;;;;;4873188;29;20205;-66
2023/09/17 10:19:39;;;;;;;3.53;3.10;;;34.20;99.90;;;;;;4862026;29;20206;-67
2023/09/17 10:22:08;;;;;;;3.30;3.00;;;35.30;99.90;;;;;;4872721;29;20728;-67
2023/09/17 10:24:36;;;;;;;5.43;2.90;;;37.10;99.90;;;;;;4872483;29;20714;-66
2023/09/17 10:27:08;;;;;;;4.30;2.80;;;34.00;99.90;;;;;;4872109;29;20232;-66
2023/09/17 10:29:36;;;;;;;3.05;2.85;;;36.60;99.90;;;;;;4872031;29;20198;-67
2023/09/17 10:32:05;;;;;;;2.60;2.40;;;36.00;99.90;;;;;;4873594;29;20244;-67
2023/09/17 10:34:37;;;;;;;3.90;2.78;;;35.30;99.90;;;;;;4879528;29;20284;-66
2023/09/17 10:37:05;;;;;;;2.42;2.05;;;35.10;99.90;;;;;;4876066;29;20201;-66
2023/09/17 10:39:35;;;;;;;2.92;2.58;;;36.90;99.90;;;;;;4872891;29;20675;-66
2023/09/17 10:42:02;;;;;;;4.28;2.40;;;36.50;99.90;;;;;;4856376;29;20198;-67
2023/09/17 10:44:30;;;;;;;3.20;2.50;;;34.80;99.90;;;;;;4872254;29;20252;-66
2023/09/17 10:47:01;;;;;;;6.88;2.83;;;32.90;99.90;;;;;;4873375;29;20245;-67
2023/09/17 10:49:31;;;;;;;2.65;2.45;;;34.60;99.90;;;;;;4879311;29;20693;-66
2023/09/17 10:51:59;;;;;;;3.25;2.80;;;36.50;99.90;;;;;;4876458;29;20663;-66
2023/09/17 10:54:26;;;;;;;3.20;2.42;;;36.30;99.90;;;;;;4876638;29;20204;-67
2023/09/17 10:56:55;;;;;;;2.92;2.70;;;36.70;99.90;;;;;;4873025;29;20205;-67
2023/09/17 10:59:23;;;;;;;2.58;2.40;;;37.70;99.90;;;;;;4871421;29;20690;-67
2023/09/17 11:01:52;;;;;;;3.15;2.72;;;37.40;99.90;;;;;;4868821;29;20463;-67
2023/09/17 11:04:23;;;;;;;2.78;2.58;;;36.30;99.90;;;;;;4875715;29;20761;-66
2023/09/17 11:06:51;;;;;;;2.65;2.45;;;35.80;99.90;;;;;;4869119;29;20213;-67
2023/09/17 11:09:19;;;;;;;2.85;2.65;;;37.30;99.90;;;;;;4878593;29;20685;-67
2023/09/17 11:11:46;;;;;;;2.83;2.63;;;34.30;99.90;;;;;;4872951;29;20201;-69
2023/09/17 11:14:15;;;;;;;3.22;2.50;;;34.30;99.90;;;;;;4882595;29;20311;-66
2023/09/17 11:16:42;;;;;;;2.88;2.67;;;34.40;99.90;;;;;;4891562;29;20650;-66
2023/09/17 11:19:19;;;;;;;2.67;2.47;;;34.50;99.90;;;;;;4891704;29;20226;-67
2023/09/17 11:22:11;;;;;;;2.75;2.47;;;34.80;99.90;;;;;;4888179;29;20238;-66
2023/09/17 11:24:39;;;;;;;2.95;2.60;;;35.50;99.90;;;;;;4862374;29;20257;-66
2023/09/17 11:27:08;;;;;;;2.70;2.50;;;37.20;99.90;;;;;;4867188;29;20236;-66
2023/09/17 11:29:48;;;;;;;3.80;2.42;;;35.80;99.90;;;;;;4872972;29;20551;-66
2023/09/17 11:32:23;;;;;;;4.00;3.00;;;36.00;99.90;;;;;;4891343;29;20221;-66
2023/09/17 11:34:50;;;;;;;2.45;2.25;;;34.30;99.90;;;;;;4885888;29;20219;-65
2023/09/17 11:37:20;;;;;;;3.53;1.90;;;35.30;99.90;;;;;;4872854;29;20209;-65
2023/09/17 11:39:51;;;;;;;2.50;2.30;;;34.60;99.90;;;;;;4872752;29;20254;-68
2023/09/17 11:42:21;;;;;;;5.43;2.50;;;36.60;99.90;;;;;;4884413;29;20247;-67
2023/09/17 11:44:48;;;;;;;2.42;2.22;;;36.20;99.90;;;;;;4891230;29;20280;-65
2023/09/17 11:47:17;;;;;;;2.40;2.20;;;33.10;99.90;;;;;;4875191;29;20232;-65
2023/09/17 11:49:46;;;;;;;3.10;2.80;;;31.60;99.90;;;;;;4891277;29;20271;-65
2023/09/17 11:52:13;;;;;;;3.33;3.03;;;33.10;99.90;;;;;;4891668;29;20684;-66
2023/09/17 11:54:50;;;;;;;4.80;2.58;;;33.90;99.90;;;;;;4891584;29;20205;-66
2023/09/17 11:57:25;;;;;;;5.00;4.18;;;34.40;99.90;;;;;;4883071;29;20218;-66
2023/09/17 11:59:53;;;;;;;2.55;2.35;;;33.40;99.90;;;;;;4852535;29;20212;-66
2023/09/17 12:02:22;;;;;;;2.60;2.40;;;33.00;99.90;;;;;;4885470;29;20671;-67
2023/09/17 12:04:51;;;;;;;4.57;3.55;;;31.70;99.90;;;;;;4881401;29;20193;-67
2023/09/17 12:07:19;;;;;;;4.07;2.67;;;31.40;99.90;;;;;;4867034;29;20599;-67
2023/09/17 12:10:00;;;;;;;2.60;2.40;;;31.80;99.90;;;;;;4868909;29;20498;-67
2023/09/17 12:12:31;;;;;;;2.53;2.30;;;32.60;99.90;;;;;;4884236;29;20650;-67
2023/09/17 12:14:59;;;;;;;3.00;2.70;;;32.10;99.90;;;;;;4858068;29;20570;-63
2023/09/17 12:17:29;;;;;;;2.60;2.40;;;31.70;99.90;;;;;;4856634;29;20205;-63
2023/09/17 12:20:40;;;;;;;3.22;2.70;;;32.00;99.90;;;;;;4854580;29;20202;-63
2023/09/17 12:22:57;;;;;;;5.45;2.40;;;32.90;99.90;;;;;;4851198;29;20241;-63
2023/09/17 12:25:24;;;;;;;4.70;4.18;;;33.20;99.90;;;;;;4853781;29;20755;-63
2023/09/17 12:27:51;;;;;;;7.90;3.88;;;33.00;99.90;;;;;;4864110;29;20218;-64
2023/09/17 12:30:19;;;;;;;5.28;4.38;;;31.30;99.90;;;;;;4839293;29;20206;-63
2023/09/17 12:32:46;;;;;;;3.75;3.05;;;31.30;99.90;;;;;;4857867;29;20699;-63
2023/09/17 12:35:14;;;;;;;4.60;3.22;;;31.20;99.90;;;;;;4854267;29;20719;-63
2023/09/17 12:37:41;;;;;;;3.53;2.47;;;31.40;99.90;;;;;;4837005;29;20677;-65
2023/09/17 12:40:09;;;;;;;2.25;2.15;;;31.70;99.90;;;;;;4855566;29;20695;-63
2023/09/17 12:42:36;;;;;;;3.28;2.97;;;30.80;99.90;;;;;;4855203;29;20294;-63
2023/09/17 12:45:03;;;;;;;4.68;3.17;;;31.40;99.90;;;;;;4834880;29;20287;-67
2023/09/17 12:47:31;;;;;;;2.40;2.20;;;31.20;99.90;;;;;;4851548;29;20230;-67
2023/09/17 12:50:00;;;;;;;5.97;2.78;;;31.50;99.90;;;;;;4871207;29;20232;-67